createdAt,value
2023-01-11T00:00:40.404Z,4.05
2023-01-11T00:03:07.879Z,2.67
2023-01-11T00:05:38.177Z,2.17
2023-01-11T00:08:05.833Z,1.05
2023-01-11T00:10:33.809Z,1.27
2023-01-11T00:13:01.315Z,3.47
2023-01-11T00:15:30.056Z,1.98
2023-01-11T00:17:58.228Z,1.80
2023-01-11T00:20:25.519Z,1.17
2023-01-11T00:22:52.963Z,1.38
2023-01-11T00:25:20.307Z,0.93
2023-01-11T00:27:49.365Z,1.08
2023-01-11T00:30:17.031Z,0.60
2023-01-11T00:32:45.822Z,0.98
2023-01-11T00:35:13.205Z,0.80
2023-01-11T00:37:40.844Z,0.98
2023-01-11T00:40:09.549Z,2.25
2023-01-11T00:42:54.631Z,3.88
2023-01-11T00:45:39.810Z,0.50
2023-01-11T00:50:36.919Z,4.53
2023-01-11T00:53:04.741Z,1.20
2023-01-11T00:55:32.740Z,1.27
2023-01-11T00:58:00.160Z,4.03
2023-01-11T01:00:28.045Z,0.50
2023-01-11T01:02:55.519Z,0.40
2023-01-11T01:05:23.009Z,1.60
2023-01-11T01:07:51.722Z,2.05
2023-01-11T01:10:19.207Z,0.57
2023-01-11T01:13:04.551Z,0.77
2023-01-11T01:15:32.154Z,2.95
2023-01-11T01:17:59.635Z,0.70
2023-01-11T01:20:27.423Z,1.05
2023-01-11T01:22:56.157Z,1.23
2023-01-11T01:25:23.615Z,2.08
2023-01-11T01:27:50.931Z,0.88
2023-01-11T01:30:18.510Z,2.45
2023-01-11T01:32:45.808Z,2.92
2023-01-11T01:35:13.205Z,0.68
2023-01-11T01:37:40.546Z,1.75
2023-01-11T01:40:10.451Z,0.98
2023-01-11T01:42:37.923Z,1.15
2023-01-11T01:45:07.710Z,0.77
2023-01-11T01:47:40.770Z,2.78
2023-01-11T01:50:11.531Z,1.80
2023-01-11T01:52:38.946Z,0.82
2023-01-11T01:55:08.434Z,5.47
2023-01-11T01:57:38.473Z,1.10
2023-01-11T02:00:07.426Z,1.73
2023-01-11T02:02:35.107Z,2.05
2023-01-11T02:05:02.552Z,1.67
2023-01-11T02:07:31.973Z,0.65
2023-01-11T02:10:01.363Z,1.00
2023-01-11T02:12:30.364Z,1.35
2023-01-11T02:15:00.401Z,0.85
2023-01-11T02:17:27.770Z,0.70
2023-01-11T02:19:57.776Z,2.92
2023-01-11T02:22:55.272Z,0.40
2023-01-11T02:25:40.874Z,1.55
2023-01-11T02:28:13.159Z,0.80
2023-01-11T02:30:45.506Z,0.40
2023-01-11T02:33:16.774Z,0.85
2023-01-11T02:35:49.285Z,0.70
2023-01-11T02:38:21.250Z,0.90
2023-01-11T02:40:51.861Z,0.80
2023-01-11T02:43:52.958Z,0.80
2023-01-11T02:46:23.948Z,0.95
2023-01-11T02:48:53.998Z,0.60
2023-01-11T02:51:24.290Z,2.63
2023-01-11T02:53:54.610Z,1.00
2023-01-11T02:56:23.115Z,0.47
2023-01-11T02:58:52.903Z,0.55
2023-01-11T03:01:22.499Z,0.60
2023-01-11T03:03:49.890Z,0.57
2023-01-11T03:06:20.316Z,0.20
2023-01-11T03:08:58.328Z,1.40
2023-01-11T03:11:47.456Z,0.40
2023-01-11T03:14:21.164Z,1.08
2023-01-11T03:16:52.710Z,1.55
2023-01-11T03:19:24.228Z,0.28
2023-01-11T03:21:56.082Z,0.20
2023-01-11T03:24:29.474Z,1.10
2023-01-11T03:27:03.365Z,0.20
2023-01-11T03:29:34.309Z,0.28
2023-01-11T03:32:07.817Z,0.55
2023-01-11T03:34:36.646Z,3.63
2023-01-11T03:37:06.973Z,0.20
2023-01-11T03:39:36.719Z,0.10
2023-01-11T03:42:06.467Z,0.20
2023-01-11T03:44:37.107Z,0.73
2023-01-11T03:47:06.450Z,0.10
2023-01-11T03:49:36.194Z,0.10
2023-01-11T03:52:04.822Z,1.35
2023-01-11T03:54:33.067Z,0.10
2023-01-11T03:57:03.691Z,0.30
2023-01-11T03:59:30.983Z,0.20
2023-01-11T04:02:00.130Z,0.10
2023-01-11T04:04:27.653Z,0.25
2023-01-11T04:06:55.041Z,0.20
2023-01-11T04:09:22.502Z,0.35
2023-01-11T04:11:49.817Z,0.93
2023-01-11T04:14:17.152Z,0.10
2023-01-11T04:16:44.439Z,0.98
2023-01-11T04:19:13.067Z,0.65
2023-01-11T04:21:40.385Z,2.22
2023-01-11T04:24:08.014Z,0.82
2023-01-11T04:26:35.321Z,0.20
2023-01-11T04:29:02.657Z,0.22
2023-01-11T04:31:29.990Z,0.15
2023-01-11T04:33:57.319Z,0.10
2023-01-11T04:36:26.427Z,1.27
2023-01-11T04:38:53.740Z,1.33
2023-01-11T04:41:38.711Z,0.40
2023-01-11T04:44:06.035Z,0.20
2023-01-11T04:46:33.404Z,0.20
2023-01-11T04:49:00.690Z,0.65
2023-01-11T04:51:29.393Z,0.50
2023-01-11T04:53:56.740Z,0.10
2023-01-11T04:56:24.061Z,0.63
2023-01-11T04:58:51.356Z,0.28
2023-01-11T05:01:19.544Z,0.82
2023-01-11T05:03:46.984Z,1.10
2023-01-11T05:06:15.018Z,1.55
2023-01-11T05:08:47.231Z,0.30
2023-01-11T05:11:14.686Z,0.65
2023-01-11T05:13:45.140Z,0.28
2023-01-11T05:16:13.506Z,1.75
2023-01-11T05:18:41.543Z,0.70
2023-01-11T05:21:09.105Z,0.40
2023-01-11T05:23:37.187Z,1.17
2023-01-11T05:26:07.572Z,1.67
2023-01-11T05:28:35.061Z,0.50
2023-01-11T05:31:02.388Z,0.40
2023-01-11T05:33:29.894Z,0.55
2023-01-11T05:36:00.726Z,0.22
2023-01-11T05:38:28.576Z,1.27
2023-01-11T05:40:56.657Z,0.30
2023-01-11T05:43:25.604Z,0.85
2023-01-11T05:45:51.984Z,0.75
2023-01-11T05:48:19.487Z,0.28
2023-01-11T05:50:50.541Z,0.75
2023-01-11T05:53:17.903Z,1.98
2023-01-11T05:55:52.676Z,2.22
2023-01-11T06:00:49.612Z,1.13
2023-01-11T06:03:16.964Z,0.70
2023-01-11T06:05:46.001Z,1.25
2023-01-11T06:08:13.734Z,0.75
2023-01-11T06:10:41.417Z,0.82
2023-01-11T06:13:23.187Z,0.95
2023-01-11T06:15:51.878Z,2.33
2023-01-11T06:18:19.190Z,0.43
2023-01-11T06:20:49.500Z,4.63
2023-01-11T06:23:16.807Z,0.90
2023-01-11T06:25:45.390Z,0.88
2023-01-11T06:28:13.074Z,0.70
2023-01-11T06:30:40.760Z,0.65
2023-01-11T06:33:09.528Z,0.82
2023-01-11T06:35:38.511Z,2.80
2023-01-11T06:38:05.824Z,2.75
2023-01-11T06:40:33.370Z,0.30
2023-01-11T06:43:00.719Z,0.68
2023-01-11T06:45:28.221Z,2.63
2023-01-11T06:47:55.567Z,1.90
2023-01-11T06:50:24.503Z,2.85
2023-01-11T06:52:55.227Z,2.67
2023-01-11T06:55:23.113Z,5.05
2023-01-11T06:57:50.399Z,1.67
2023-01-11T07:00:18.362Z,2.97
2023-01-11T07:02:46.090Z,2.15
2023-01-11T07:05:13.538Z,3.53
2023-01-11T07:07:42.791Z,2.03
2023-01-11T07:10:11.606Z,2.83
2023-01-11T07:12:39.012Z,1.48
2023-01-11T07:15:07.323Z,1.05
2023-01-11T07:17:34.957Z,1.80
2023-01-11T07:20:02.432Z,4.60
2023-01-11T07:22:30.070Z,1.60
2023-01-11T07:24:58.691Z,2.55
2023-01-11T07:27:25.990Z,1.10
2023-01-11T07:29:53.744Z,1.45
2023-01-11T07:32:21.251Z,1.15
2023-01-11T07:34:48.711Z,0.93
2023-01-11T07:37:29.112Z,1.73
2023-01-11T07:39:56.795Z,1.60
2023-01-11T07:42:43.099Z,1.35
2023-01-11T07:45:10.833Z,0.98
2023-01-11T07:47:38.172Z,2.33
2023-01-11T07:50:05.930Z,1.63
2023-01-11T07:52:33.292Z,1.15
2023-01-11T07:55:02.557Z,2.28
2023-01-11T07:57:32.196Z,0.43
2023-01-11T07:59:59.499Z,0.90
2023-01-11T08:02:26.931Z,1.27
2023-01-11T08:04:54.288Z,0.77
2023-01-11T08:07:21.623Z,3.13
2023-01-11T08:09:48.902Z,1.23
2023-01-11T08:12:33.985Z,3.03
2023-01-11T08:15:02.644Z,1.33
2023-01-11T08:17:29.948Z,1.52
2023-01-11T08:19:57.347Z,1.95
2023-01-11T08:22:24.591Z,0.88
2023-01-11T08:24:51.900Z,1.00
2023-01-11T08:27:19.188Z,4.68
2023-01-11T08:29:46.559Z,1.55
2023-01-11T08:32:15.292Z,4.45
2023-01-11T08:34:42.818Z,3.35
2023-01-11T08:37:10.140Z,1.30
2023-01-11T08:39:37.459Z,4.13
2023-01-11T08:42:04.878Z,3.05
2023-01-11T08:44:34.545Z,3.83
2023-01-11T08:47:02.439Z,4.07
2023-01-11T08:49:31.282Z,3.75
2023-01-11T08:51:58.670Z,3.03
2023-01-11T08:54:26.148Z,4.32
2023-01-11T08:56:53.479Z,5.38
2023-01-11T08:59:21.961Z,2.47
2023-01-11T09:01:49.559Z,1.80
2023-01-11T09:04:24.589Z,5.38
2023-01-11T09:06:54.124Z,3.10
2023-01-11T09:09:21.448Z,7.10
2023-01-11T09:11:58.742Z,5.57
2023-01-11T09:14:26.703Z,3.38
2023-01-11T09:16:54.776Z,3.72
2023-01-11T09:19:22.357Z,5.55
2023-01-11T09:21:49.906Z,7.80
2023-01-11T09:24:18.615Z,6.05
2023-01-11T09:26:45.952Z,6.05
2023-01-11T09:29:13.765Z,7.38
2023-01-11T09:31:41.295Z,7.68
2023-01-11T09:34:10.813Z,9.48
2023-01-11T09:36:39.993Z,7.63
2023-01-11T09:39:10.354Z,5.93
2023-01-11T09:42:00.699Z,11.10
2023-01-11T09:44:29.589Z,9.98
2023-01-11T09:47:04.126Z,16.60
2023-01-11T09:49:34.440Z,16.05
2023-01-11T09:52:10.989Z,13.48
2023-01-11T09:54:38.389Z,16.13
2023-01-11T09:57:13.357Z,16.20
2023-01-11T09:59:46.556Z,15.20
2023-01-11T10:02:19.524Z,18.13
2023-01-11T10:04:59.070Z,16.63
2023-01-11T10:07:37.225Z,21.20
2023-01-11T10:18:39.409Z,21.10
2023-01-11T10:19:33.391Z,13.05
2023-01-11T10:21:55.523Z,13.80
2023-01-11T10:24:25.820Z,21.38
2023-01-11T10:26:56.615Z,20.10
2023-01-11T10:29:47.423Z,21.50
2023-01-11T10:32:34.572Z,17.65
2023-01-11T10:35:24.182Z,20.45
2023-01-11T10:38:07.024Z,10.90
2023-01-11T10:40:59.930Z,15.25
2023-01-11T10:43:28.895Z,16.42
2023-01-11T10:45:58.977Z,20.35
2023-01-11T10:48:28.103Z,11.93
2023-01-11T10:51:00.095Z,12.50
2023-01-11T10:53:28.546Z,17.23
2023-01-11T10:56:03.016Z,16.15
2023-01-11T10:58:38.720Z,20.17
2023-01-11T11:01:16.971Z,12.65
2023-01-11T11:03:53.847Z,17.02
2023-01-11T11:06:25.463Z,25.00
2023-01-11T11:08:55.726Z,19.90
2023-01-11T11:11:26.948Z,17.90
2023-01-11T11:13:57.121Z,12.63
2023-01-11T11:16:30.513Z,11.45
2023-01-11T11:18:59.644Z,14.10
2023-01-11T11:21:29.208Z,14.77
2023-01-11T11:23:57.890Z,12.50
2023-01-11T11:26:27.191Z,14.35
2023-01-11T11:29:01.374Z,14.70
2023-01-11T11:31:31.350Z,14.75
2023-01-11T11:34:04.711Z,8.00
2023-01-11T11:36:41.119Z,8.70
2023-01-11T11:39:11.379Z,19.52
2023-01-11T11:41:46.405Z,13.48
2023-01-11T11:44:17.202Z,14.50
2023-01-11T11:46:56.634Z,19.08
2023-01-11T11:49:24.015Z,19.52
2023-01-11T11:51:52.270Z,12.98
2023-01-11T11:54:21.258Z,13.38
2023-01-11T11:56:48.887Z,12.80
2023-01-11T11:59:18.616Z,12.77
2023-01-11T12:01:49.051Z,11.80
2023-01-11T12:04:17.788Z,18.75
2023-01-11T12:06:46.512Z,18.13
2023-01-11T12:09:19.836Z,19.08
2023-01-11T12:11:48.781Z,9.30
2023-01-11T12:14:22.054Z,13.35
2023-01-11T12:16:50.915Z,15.55
2023-01-11T12:19:28.367Z,11.35
2023-01-11T12:22:10.171Z,17.27
2023-01-11T12:24:37.832Z,14.60
2023-01-11T12:27:09.210Z,18.15
2023-01-11T12:29:46.418Z,11.68
2023-01-11T12:32:31.389Z,14.82
2023-01-11T12:35:06.178Z,8.68
2023-01-11T12:40:07.934Z,16.80
2023-01-11T12:42:50.455Z,17.90
2023-01-11T12:45:22.091Z,14.25
2023-01-11T12:47:59.788Z,12.25
2023-01-11T12:50:29.369Z,19.02
2023-01-11T12:53:15.359Z,13.15
2023-01-11T12:55:50.802Z,15.30
2023-01-11T12:58:20.577Z,20.02
2023-01-11T13:00:56.907Z,12.82
2023-01-11T13:03:34.096Z,13.23
2023-01-11T13:06:07.055Z,16.23
2023-01-11T13:08:41.621Z,16.05
2023-01-11T13:11:13.433Z,14.82
2023-01-11T13:13:48.674Z,16.33
2023-01-11T13:16:18.530Z,17.52
2023-01-11T13:18:50.990Z,8.35
2023-01-11T13:21:21.033Z,16.13
2023-01-11T13:23:50.923Z,12.88
2023-01-11T13:26:21.262Z,14.18
2023-01-11T13:28:51.204Z,11.70
2023-01-11T13:31:19.579Z,14.05
2023-01-11T13:33:52.687Z,11.65
2023-01-11T13:36:23.981Z,11.15
2023-01-11T13:38:55.951Z,8.63
2023-01-11T13:41:24.840Z,14.95
2023-01-11T13:43:55.429Z,16.05
2023-01-11T13:46:34.804Z,10.50
2023-01-11T13:49:07.447Z,10.25
2023-01-11T13:51:39.245Z,18.88
2023-01-11T13:54:09.803Z,10.82
2023-01-11T13:56:39.261Z,11.80
2023-01-11T13:59:10.074Z,19.35
2023-01-11T14:01:41.106Z,12.60
2023-01-11T14:04:12.430Z,15.13
2023-01-11T14:06:43.897Z,21.85
2023-01-11T14:09:17.185Z,16.92
2023-01-11T14:11:47.079Z,15.77
2023-01-11T14:14:21.351Z,19.38
2023-01-11T14:16:58.353Z,16.15
2023-01-11T14:19:29.245Z,13.88
2023-01-11T14:22:01.267Z,17.70
2023-01-11T14:24:29.580Z,13.05
2023-01-11T14:27:07.707Z,22.70
2023-01-11T14:29:43.609Z,17.52
2023-01-11T14:32:29.320Z,16.40
2023-01-11T14:35:17.799Z,17.65
2023-01-11T14:37:55.641Z,18.92
2023-01-11T14:40:40.474Z,14.77
2023-01-11T14:43:22.814Z,16.10
2023-01-11T14:45:59.298Z,20.30
2023-01-11T14:48:29.836Z,16.90
2023-01-11T14:51:30.595Z,18.27
2023-01-11T14:54:03.734Z,16.75
2023-01-11T14:56:52.058Z,17.35
2023-01-11T14:59:40.544Z,17.70
2023-01-11T15:02:24.189Z,26.27
2023-01-11T15:05:05.755Z,13.07
2023-01-11T15:07:38.560Z,16.33
2023-01-11T15:10:26.641Z,20.77
2023-01-11T15:12:56.452Z,16.90
2023-01-11T15:15:44.503Z,22.08
2023-01-11T15:18:19.370Z,15.93
2023-01-11T15:23:18.289Z,16.63
2023-01-11T15:25:48.307Z,15.95
2023-01-11T15:28:39.197Z,13.77
2023-01-11T15:31:07.053Z,25.27
2023-01-11T15:33:55.290Z,14.70
2023-01-11T15:36:24.407Z,15.23
2023-01-11T15:38:57.730Z,9.48
2023-01-11T15:41:56.340Z,15.68
2023-01-11T15:44:33.644Z,18.75
2023-01-11T15:47:23.654Z,20.90
2023-01-11T15:49:59.641Z,22.27
2023-01-11T15:52:53.837Z,16.58
2023-01-11T15:55:34.816Z,19.45
2023-01-11T15:58:21.789Z,16.90
2023-01-11T16:01:00.282Z,17.17
2023-01-11T16:03:53.857Z,16.45
2023-01-11T16:06:27.795Z,21.80
2023-01-11T16:08:59.495Z,20.77
2023-01-11T16:11:32.864Z,15.70
2023-01-11T16:14:06.543Z,11.75
2023-01-11T16:16:39.072Z,20.67
2023-01-11T16:19:08.720Z,16.23
2023-01-11T16:21:37.231Z,16.65
2023-01-11T16:24:05.418Z,11.73
2023-01-11T16:26:35.273Z,19.13
2023-01-11T16:29:04.726Z,12.68
2023-01-11T16:31:46.996Z,12.25
2023-01-11T16:34:16.998Z,10.50
2023-01-11T16:36:48.767Z,16.95
2023-01-11T16:39:18.000Z,10.07
2023-01-11T16:41:48.557Z,15.68
2023-01-11T16:44:21.829Z,14.98
2023-01-11T16:47:07.203Z,12.52
2023-01-11T16:49:34.593Z,14.02
2023-01-11T16:52:11.662Z,21.52
2023-01-11T16:54:42.327Z,13.20
2023-01-11T16:57:16.366Z,14.38
2023-01-11T16:59:43.827Z,16.45
2023-01-11T17:02:26.446Z,14.65
2023-01-11T17:04:54.450Z,11.65
2023-01-11T17:07:23.451Z,12.35
2023-01-11T17:09:51.093Z,14.07
2023-01-11T17:12:22.258Z,11.55
2023-01-11T17:14:58.747Z,12.77
2023-01-11T17:17:27.249Z,13.07
2023-01-11T17:19:56.121Z,14.02
2023-01-11T17:22:25.921Z,12.43
2023-01-11T17:24:54.847Z,11.85
2023-01-11T17:27:25.639Z,13.50
2023-01-11T17:29:54.344Z,8.45
2023-01-11T17:32:23.765Z,9.45
2023-01-11T17:34:51.607Z,7.80
2023-01-11T17:37:19.518Z,10.45
2023-01-11T17:39:48.526Z,10.82
2023-01-11T17:42:33.583Z,6.47
2023-01-11T17:45:13.684Z,8.93
2023-01-11T17:47:41.616Z,11.52
2023-01-11T17:50:19.043Z,10.55
2023-01-11T17:52:54.496Z,12.32
2023-01-11T17:55:24.014Z,9.90
2023-01-11T17:58:09.490Z,13.70
2023-01-11T18:00:38.360Z,20.17
2023-01-11T18:03:09.137Z,8.38
2023-01-11T18:05:36.538Z,12.05
2023-01-11T18:08:09.488Z,9.50
2023-01-11T18:10:39.045Z,11.00
2023-01-11T18:13:06.397Z,9.05
2023-01-11T18:15:34.729Z,8.60
2023-01-11T18:18:05.825Z,7.57
2023-01-11T18:20:40.160Z,8.07
2023-01-11T18:23:18.477Z,11.20
2023-01-11T18:25:46.756Z,10.00
2023-01-11T18:28:21.733Z,10.88
2023-01-11T18:30:52.246Z,14.70
2023-01-11T18:33:22.474Z,17.63
2023-01-11T18:35:51.158Z,15.23
2023-01-11T18:38:19.112Z,14.85
2023-01-11T18:40:47.622Z,13.23
2023-01-11T18:43:15.448Z,8.32
2023-01-11T18:45:42.867Z,9.43
2023-01-11T18:48:11.682Z,60.55
2023-01-11T18:50:41.694Z,11.43
2023-01-11T18:53:11.003Z,11.13
2023-01-11T18:55:38.367Z,16.85
2023-01-11T18:58:05.672Z,8.15
2023-01-11T19:00:33.200Z,14.15
2023-01-11T19:03:00.556Z,14.05
2023-01-11T19:05:27.959Z,12.82
2023-01-11T19:07:56.640Z,14.57
2023-01-11T19:10:24.277Z,11.55
2023-01-11T19:12:51.585Z,11.15
2023-01-11T19:15:18.908Z,9.73
2023-01-11T19:17:46.245Z,14.35
2023-01-11T19:20:14.152Z,21.52
2023-01-11T19:22:41.884Z,14.05
2023-01-11T19:25:11.051Z,19.05
2023-01-11T19:27:38.420Z,15.40
2023-01-11T19:30:06.447Z,13.30
2023-01-11T19:32:33.739Z,9.57
2023-01-11T19:35:01.427Z,18.45
2023-01-11T19:37:29.927Z,9.63
2023-01-11T19:39:57.296Z,11.95
2023-01-11T19:42:26.065Z,9.68
2023-01-11T19:44:53.452Z,11.55
2023-01-11T19:47:21.046Z,11.52
2023-01-11T19:49:48.494Z,9.48
2023-01-11T19:52:18.951Z,9.23
2023-01-11T19:54:46.813Z,15.15
2023-01-11T19:57:15.095Z,14.95
2023-01-11T19:59:43.782Z,14.60
2023-01-11T20:02:11.559Z,10.30
2023-01-11T20:04:38.900Z,8.82
2023-01-11T20:07:06.309Z,11.45
2023-01-11T20:09:33.721Z,5.95
2023-01-11T20:12:01.079Z,10.77
2023-01-11T20:14:28.403Z,12.18
2023-01-11T20:16:57.077Z,12.70
2023-01-11T20:19:24.399Z,13.70
2023-01-11T20:21:51.717Z,8.70
2023-01-11T20:24:19.079Z,10.63
2023-01-11T20:26:46.659Z,6.65
2023-01-11T20:29:14.156Z,11.50
2023-01-11T20:31:41.584Z,11.68
2023-01-11T20:34:13.073Z,11.82
2023-01-11T20:36:40.411Z,11.10
2023-01-11T20:39:08.272Z,10.85
2023-01-11T20:41:52.872Z,11.38
2023-01-11T20:44:21.900Z,11.85
2023-01-11T20:46:49.378Z,7.85
2023-01-11T20:49:18.425Z,10.57
2023-01-11T20:51:46.296Z,11.18
2023-01-11T20:54:14.054Z,12.02
2023-01-11T20:56:41.639Z,12.82
2023-01-11T21:01:37.939Z,10.48
2023-01-11T21:04:06.587Z,14.68
2023-01-11T21:06:36.249Z,8.18
2023-01-11T21:09:03.954Z,8.43
2023-01-11T21:11:32.067Z,9.38
2023-01-11T21:14:00.244Z,10.40
2023-01-11T21:16:28.482Z,10.13
2023-01-11T21:18:56.645Z,6.85
2023-01-11T21:21:24.090Z,8.40
2023-01-11T21:23:54.484Z,12.07
2023-01-11T21:26:22.326Z,9.02
2023-01-11T21:28:51.610Z,6.20
2023-01-11T21:31:21.099Z,8.75
2023-01-11T21:33:48.674Z,15.77
2023-01-11T21:36:16.960Z,14.27
2023-01-11T21:38:44.316Z,8.77
2023-01-11T21:41:13.925Z,14.77
2023-01-11T21:43:42.250Z,16.80
2023-01-11T21:46:10.734Z,11.88
2023-01-11T21:48:38.361Z,14.60
2023-01-11T21:51:08.340Z,9.60
2023-01-11T21:53:36.206Z,6.57
2023-01-11T21:56:04.233Z,19.13
2023-01-11T21:58:32.934Z,11.35
2023-01-11T22:01:00.745Z,12.85
2023-01-11T22:03:28.478Z,8.70
2023-01-11T22:06:00.432Z,7.78
2023-01-11T22:08:28.059Z,9.98
2023-01-11T22:10:58.529Z,6.43
2023-01-11T22:13:25.865Z,11.05
2023-01-11T22:15:54.587Z,10.77
2023-01-11T22:18:22.831Z,6.18
2023-01-11T22:20:50.850Z,11.60
2023-01-11T22:23:18.135Z,8.35
2023-01-11T22:25:45.619Z,13.48
2023-01-11T22:28:13.013Z,8.45
2023-01-11T22:30:40.312Z,6.38
2023-01-11T22:33:09.032Z,7.45
2023-01-11T22:35:36.439Z,11.43
2023-01-11T22:38:03.844Z,8.50
2023-01-11T22:40:31.165Z,4.97
2023-01-11T22:42:58.520Z,14.48
2023-01-11T22:45:25.946Z,5.78
2023-01-11T22:47:53.368Z,9.80
2023-01-11T22:50:22.002Z,12.30
2023-01-11T22:52:49.402Z,10.88
2023-01-11T22:55:16.774Z,12.07
2023-01-11T22:57:44.103Z,13.02
2023-01-11T23:00:12.074Z,10.70
2023-01-11T23:02:39.531Z,15.40
2023-01-11T23:05:07.153Z,7.72
2023-01-11T23:07:35.805Z,6.47
2023-01-11T23:10:04.526Z,13.60
2023-01-11T23:12:49.264Z,12.43
2023-01-11T23:15:16.763Z,8.07
2023-01-11T23:17:44.124Z,11.68
2023-01-11T23:20:12.315Z,7.00
2023-01-11T23:22:41.031Z,7.68
2023-01-11T23:25:08.858Z,10.25
2023-01-11T23:27:36.192Z,12.32
2023-01-11T23:30:03.597Z,9.10
2023-01-11T23:32:30.901Z,11.60
2023-01-11T23:34:58.206Z,11.70
2023-01-11T23:37:25.553Z,9.70
2023-01-11T23:39:54.289Z,13.27
2023-01-11T23:42:26.621Z,7.40
2023-01-11T23:44:54.185Z,10.10
2023-01-11T23:47:24.711Z,7.85
2023-01-11T23:49:52.588Z,8.20
2023-01-11T23:52:20.837Z,5.38
2023-01-11T23:54:48.251Z,7.00
2023-01-11T23:57:17.948Z,10.20
2023-01-11T23:59:45.498Z,6.68
